createdAt,value
2022-08-07T00:02:37.562Z,42.60
2022-08-07T00:05:14.280Z,49.80
2022-08-07T00:08:05.024Z,42.00
2022-08-07T00:10:47.917Z,42.60
2022-08-07T00:13:30.692Z,42.20
2022-08-07T00:16:01.203Z,42.00
2022-08-07T00:18:36.896Z,43.20
2022-08-07T00:21:57.361Z,42.20
2022-08-07T00:24:18.740Z,42.00
2022-08-07T00:27:09.461Z,42.80
2022-08-07T00:29:57.838Z,42.00
2022-08-07T00:32:41.682Z,44.00
2022-08-07T00:35:15.044Z,42.00
2022-08-07T00:37:48.297Z,42.40
2022-08-07T00:40:39.638Z,42.00
2022-08-07T00:44:01.339Z,42.00
2022-08-07T00:46:26.387Z,42.00
2022-08-07T00:48:56.187Z,43.00
2022-08-07T00:51:57.019Z,42.60
2022-08-07T00:54:37.811Z,43.80
2022-08-07T00:57:13.551Z,42.00
2022-08-07T00:59:52.866Z,43.80
2022-08-07T01:02:28.252Z,42.00
2022-08-07T01:05:01.264Z,42.00
2022-08-07T01:07:33.044Z,42.00
2022-08-07T01:10:06.350Z,42.00
2022-08-07T01:12:53.091Z,42.20
2022-08-07T01:15:35.782Z,42.00
2022-08-07T01:18:11.056Z,42.80
2022-08-07T01:20:57.372Z,42.00
2022-08-07T01:23:36.422Z,42.00
2022-08-07T01:26:11.979Z,42.00
2022-08-07T01:28:45.851Z,42.00
2022-08-07T01:31:15.503Z,42.00
2022-08-07T01:33:53.515Z,42.00
2022-08-07T01:36:33.824Z,45.20
2022-08-07T01:39:01.975Z,42.00
2022-08-07T01:42:07.205Z,43.00
2022-08-07T01:44:27.963Z,43.80
2022-08-07T01:46:55.475Z,42.00
2022-08-07T01:49:23.330Z,43.00
2022-08-07T01:52:02.472Z,42.00
2022-08-07T01:54:37.601Z,42.00
2022-08-07T01:57:09.659Z,42.80
2022-08-07T02:00:00.842Z,42.00
2022-08-07T02:03:18.938Z,42.00
2022-08-07T02:05:48.380Z,42.00
2022-08-07T02:08:26.782Z,42.80
2022-08-07T02:10:59.629Z,42.00
2022-08-07T02:13:56.347Z,48.20
2022-08-07T02:16:19.782Z,43.40
2022-08-07T02:18:53.095Z,42.00
2022-08-07T02:21:24.443Z,42.00
2022-08-07T02:23:54.143Z,42.00
2022-08-07T02:26:32.395Z,42.00
2022-08-07T02:29:13.745Z,42.20
2022-08-07T02:31:44.624Z,42.20
2022-08-07T02:34:19.262Z,42.00
2022-08-07T02:36:48.722Z,42.00
2022-08-07T02:39:42.908Z,42.00
2022-08-07T02:42:10.020Z,42.00
2022-08-07T02:44:47.795Z,42.00
2022-08-07T02:47:19.502Z,42.00
2022-08-07T02:49:57.777Z,42.00
2022-08-07T02:52:34.702Z,42.00
2022-08-07T02:55:27.498Z,42.00
2022-08-07T02:58:03.162Z,42.00
2022-08-07T03:00:39.202Z,43.00
2022-08-07T03:03:13.488Z,42.00
2022-08-07T03:05:44.123Z,42.00
2022-08-07T03:08:14.240Z,40.40
2022-08-07T03:10:46.466Z,42.00
2022-08-07T03:13:19.536Z,42.80
2022-08-07T03:15:56.491Z,45.40
2022-08-07T03:18:34.999Z,42.00
2022-08-07T03:21:08.603Z,41.60
2022-08-07T03:24:19.761Z,42.00
2022-08-07T03:26:33.340Z,42.20
2022-08-07T03:29:10.985Z,42.00
2022-08-07T03:31:46.607Z,42.00
2022-08-07T03:34:22.308Z,43.40
2022-08-07T03:36:53.813Z,43.00
2022-08-07T03:39:46.308Z,42.00
2022-08-07T03:42:13.570Z,42.00
2022-08-07T03:44:41.707Z,42.00
2022-08-07T03:47:15.786Z,46.80
2022-08-07T03:49:51.873Z,42.00
2022-08-07T03:52:27.545Z,41.60
2022-08-07T03:55:07.816Z,43.60
2022-08-07T03:58:32.706Z,40.80
2022-08-07T04:00:33.532Z,42.00
2022-08-07T04:03:04.684Z,42.00
2022-08-07T04:05:40.212Z,43.00
2022-08-07T04:08:16.107Z,42.00
2022-08-07T04:10:54.712Z,43.00
2022-08-07T04:14:09.273Z,42.00
2022-08-07T04:16:31.093Z,42.00
2022-08-07T04:19:12.681Z,42.40
2022-08-07T04:21:59.068Z,42.20
2022-08-07T04:24:39.236Z,42.00
2022-08-07T04:27:20.278Z,42.00
2022-08-07T04:30:01.786Z,42.00
2022-08-07T04:32:34.445Z,42.00
2022-08-07T04:35:11.288Z,42.00
2022-08-07T04:38:03.256Z,42.00
2022-08-07T04:40:34.189Z,42.00
2022-08-07T04:43:03.584Z,42.20
2022-08-07T04:46:12.493Z,42.00
2022-08-07T04:49:02.341Z,42.00
2022-08-07T04:52:04.495Z,42.20
2022-08-07T04:54:36.764Z,40.00
2022-08-07T04:58:09.809Z,40.40
2022-08-07T05:00:49.455Z,42.20
2022-08-07T05:04:00.317Z,41.20
2022-08-07T05:06:43.748Z,42.00
2022-08-07T05:09:45.824Z,42.00
2022-08-07T05:12:26.994Z,42.80
2022-08-07T05:15:23.449Z,42.00
2022-08-07T05:18:00.569Z,42.00
2022-08-07T05:20:35.258Z,42.00
2022-08-07T05:23:15.690Z,40.00
2022-08-07T05:26:10.597Z,42.00
2022-08-07T05:28:58.510Z,42.00
2022-08-07T05:31:34.972Z,42.40
2022-08-07T05:34:11.067Z,40.00
2022-08-07T05:36:52.687Z,40.00
2022-08-07T05:40:13.365Z,40.00
2022-08-07T05:42:34.507Z,42.00
2022-08-07T05:45:14.290Z,42.00
2022-08-07T05:48:02.191Z,42.00
2022-08-07T05:50:31.982Z,42.00
2022-08-07T05:53:04.067Z,42.00
2022-08-07T05:56:03.212Z,42.00
2022-08-07T05:58:30.246Z,42.40
2022-08-07T06:01:11.318Z,42.20
2022-08-07T06:03:53.950Z,42.00
2022-08-07T06:06:29.864Z,42.00
2022-08-07T06:09:08.819Z,42.00
2022-08-07T06:11:38.292Z,42.00
2022-08-07T06:14:11.988Z,42.00
2022-08-07T06:16:56.241Z,42.00
2022-08-07T06:19:51.844Z,42.00
2022-08-07T06:22:23.493Z,42.00
2022-08-07T06:24:58.453Z,43.00
2022-08-07T06:27:44.403Z,42.00
2022-08-07T06:30:35.146Z,43.80
2022-08-07T06:33:05.104Z,42.20
2022-08-07T06:35:45.391Z,43.20
2022-08-07T06:38:20.037Z,42.40
2022-08-07T06:40:52.842Z,44.00
2022-08-07T06:43:23.792Z,42.60
2022-08-07T06:45:51.736Z,43.00
2022-08-07T06:48:24.846Z,43.00
2022-08-07T06:50:59.339Z,43.40
2022-08-07T06:55:29.550Z,43.00
2022-08-07T06:56:49.474Z,49.20
2022-08-07T07:00:13.058Z,43.40
2022-08-07T07:02:53.752Z,45.00
2022-08-07T07:06:04.972Z,45.00
2022-08-07T07:08:18.635Z,45.00
2022-08-07T07:10:56.438Z,43.00
2022-08-07T07:13:58.248Z,43.80
2022-08-07T07:16:33.914Z,45.00
2022-08-07T07:19:34.038Z,44.20
2022-08-07T07:22:05.029Z,43.00
2022-08-07T07:24:56.678Z,45.00
2022-08-07T07:27:35.658Z,45.20
2022-08-07T07:30:38.129Z,45.20
2022-08-07T07:33:11.526Z,45.20
2022-08-07T07:35:54.110Z,45.00
2022-08-07T07:38:31.399Z,45.00
2022-08-07T07:41:02.720Z,45.00
2022-08-07T07:43:47.829Z,45.00
2022-08-07T07:46:38.487Z,45.40
2022-08-07T07:50:33.453Z,46.00
2022-08-07T07:52:06.961Z,46.00
2022-08-07T07:54:50.459Z,46.00
2022-08-07T07:57:51.539Z,46.00
2022-08-07T08:00:09.682Z,46.00
2022-08-07T08:02:38.992Z,46.00
2022-08-07T08:05:27.818Z,46.00
2022-08-07T08:08:34.602Z,46.00
2022-08-07T08:11:00.775Z,46.00
2022-08-07T08:13:36.745Z,46.00
2022-08-07T08:16:25.155Z,46.00
2022-08-07T08:18:56.759Z,47.20
2022-08-07T08:21:55.993Z,46.80
2022-08-07T08:25:18.821Z,48.00
2022-08-07T08:27:56.669Z,47.20
2022-08-07T08:30:27.208Z,46.00
2022-08-07T08:32:58.756Z,46.40
2022-08-07T08:35:39.122Z,48.20
2022-08-07T08:38:17.140Z,48.00
2022-08-07T08:40:56.066Z,48.00
2022-08-07T08:43:56.042Z,48.00
2022-08-07T08:46:49.870Z,49.40
2022-08-07T08:50:05.193Z,48.00
2022-08-07T08:52:54.177Z,48.00
2022-08-07T08:55:53.434Z,48.00
2022-08-07T08:58:28.779Z,48.40
2022-08-07T09:01:15.938Z,49.00
2022-08-07T09:03:55.700Z,48.80
2022-08-07T09:06:52.865Z,49.00
2022-08-07T09:09:56.908Z,49.00
2022-08-07T09:12:53.034Z,48.80
2022-08-07T09:16:25.154Z,49.00
2022-08-07T09:18:47.342Z,49.00
2022-08-07T09:21:57.838Z,50.20
2022-08-07T09:24:33.365Z,49.00
2022-08-07T09:27:23.291Z,51.00
2022-08-07T09:30:04.598Z,51.00
2022-08-07T09:32:47.414Z,51.00
2022-08-07T09:36:00.843Z,49.00
2022-08-07T09:38:53.445Z,53.60
2022-08-07T09:42:05.991Z,51.00
2022-08-07T09:47:52.125Z,49.00
2022-08-07T09:48:11.564Z,49.00
2022-08-07T09:52:09.229Z,51.00
2022-08-07T09:54:03.801Z,52.00
2022-08-07T09:56:53.270Z,51.00
2022-08-07T10:00:01.452Z,49.00
2022-08-07T10:02:55.468Z,51.00
2022-08-07T10:06:05.471Z,51.00
2022-08-07T10:08:58.120Z,50.60
2022-08-07T10:12:00.994Z,51.00
2022-08-07T10:14:54.222Z,51.00
2022-08-07T10:18:01.027Z,51.20
2022-08-07T10:20:50.321Z,51.00
2022-08-07T10:24:06.304Z,51.00
2022-08-07T10:26:31.377Z,52.00
2022-08-07T10:29:16.768Z,51.20
2022-08-07T10:32:36.979Z,51.80
2022-08-07T10:35:25.820Z,51.00
2022-08-07T10:38:36.102Z,51.40
2022-08-07T10:41:51.470Z,51.00
2022-08-07T10:44:54.548Z,51.00
2022-08-07T10:47:52.711Z,51.00
2022-08-07T10:50:32.348Z,51.00
2022-08-07T10:53:11.580Z,49.00
2022-08-07T10:55:50.718Z,51.20
2022-08-07T10:59:08.715Z,51.00
2022-08-07T11:02:33.256Z,51.40
2022-08-07T11:05:19.599Z,52.60
2022-08-07T11:08:06.967Z,52.00
2022-08-07T11:11:00.449Z,52.00
2022-08-07T11:14:46.354Z,51.00
2022-08-07T11:17:07.236Z,51.80
2022-08-07T11:19:55.584Z,51.60
2022-08-07T11:22:37.114Z,52.00
2022-08-07T11:25:48.225Z,52.40
2022-08-07T11:28:55.267Z,52.00
2022-08-07T11:31:45.103Z,55.60
2022-08-07T11:34:35.168Z,51.20
2022-08-07T11:37:20.176Z,52.00
2022-08-07T11:40:03.919Z,52.00
2022-08-07T11:42:55.857Z,52.00
2022-08-07T11:45:36.484Z,52.00
2022-08-07T11:48:35.762Z,51.60
2022-08-07T11:51:50.779Z,52.00
2022-08-07T11:55:01.268Z,52.00
2022-08-07T11:58:00.793Z,52.00
2022-08-07T12:01:02.670Z,52.00
2022-08-07T12:04:09.147Z,52.00
2022-08-07T12:07:07.888Z,52.00
2022-08-07T12:09:51.629Z,52.00
2022-08-07T12:12:28.711Z,53.60
2022-08-07T12:15:08.157Z,53.60
2022-08-07T12:17:58.497Z,54.00
2022-08-07T12:20:58.245Z,55.00
2022-08-07T12:24:05.957Z,54.00
2022-08-07T12:26:59.154Z,52.40
2022-08-07T12:29:47.694Z,53.80
2022-08-07T12:33:00.695Z,54.20
2022-08-07T12:35:36.252Z,53.60
2022-08-07T12:38:11.679Z,54.40
2022-08-07T12:41:10.145Z,52.00
2022-08-07T12:44:02.038Z,52.00
2022-08-07T12:46:50.784Z,53.60
2022-08-07T12:49:53.296Z,53.20
2022-08-07T12:52:46.678Z,55.00
2022-08-07T12:55:41.370Z,55.80
2022-08-07T12:58:20.139Z,55.00
2022-08-07T13:01:27.941Z,54.80
2022-08-07T13:04:34.010Z,54.80
2022-08-07T13:08:14.184Z,55.00
2022-08-07T13:10:51.540Z,54.80
2022-08-07T13:14:02.515Z,54.40
2022-08-07T13:16:55.745Z,52.00
2022-08-07T13:19:50.728Z,55.00
2022-08-07T13:22:52.656Z,52.00
2022-08-07T13:25:50.737Z,52.40
2022-08-07T13:28:34.255Z,52.00
2022-08-07T13:31:25.501Z,52.00
2022-08-07T13:34:32.973Z,52.00
2022-08-07T13:37:20.124Z,52.40
2022-08-07T13:40:35.530Z,52.00
2022-08-07T13:43:11.989Z,52.00
2022-08-07T13:46:10.948Z,52.00
2022-08-07T13:48:38.662Z,54.00
2022-08-07T13:51:27.027Z,55.00
2022-08-07T13:54:07.944Z,52.80
2022-08-07T13:56:41.197Z,53.60
2022-08-07T13:59:27.163Z,52.00
2022-08-07T14:02:10.809Z,52.00
2022-08-07T14:04:55.085Z,53.60
2022-08-07T14:08:00.667Z,53.60
2022-08-07T14:10:42.315Z,53.60
2022-08-07T14:13:18.822Z,52.00
2022-08-07T14:16:17.119Z,52.00
2022-08-07T14:18:57.647Z,54.20
2022-08-07T14:22:03.205Z,52.40
2022-08-07T14:24:53.509Z,53.20
2022-08-07T14:28:12.330Z,54.60
2022-08-07T14:30:32.890Z,52.00
2022-08-07T14:33:05.360Z,52.40
2022-08-07T14:35:57.476Z,52.00
2022-08-07T14:38:30.784Z,52.00
2022-08-07T14:41:14.659Z,52.00
2022-08-07T14:43:59.432Z,52.00
2022-08-07T14:46:36.404Z,53.60
2022-08-07T14:49:56.133Z,52.00
2022-08-07T14:54:49.345Z,52.00
2022-08-07T14:57:25.443Z,51.60
2022-08-07T15:00:30.318Z,52.00
2022-08-07T15:03:16.457Z,51.40
2022-08-07T15:06:03.922Z,51.80
2022-08-07T15:08:50.007Z,52.00
2022-08-07T15:14:22.899Z,52.00
2022-08-07T15:17:12.635Z,53.60
2022-08-07T15:26:20.633Z,52.00
2022-08-07T15:31:58.075Z,52.00
2022-08-07T15:40:34.838Z,51.80
2022-08-07T15:46:32.445Z,52.00
2022-08-07T15:49:14.622Z,51.00
2022-08-07T15:54:39.729Z,51.20
2022-08-07T15:57:39.241Z,52.60
2022-08-07T16:00:04.450Z,51.40
2022-08-07T16:02:40.806Z,51.00
2022-08-07T16:05:23.134Z,51.40
2022-08-07T16:08:32.212Z,51.00
2022-08-07T16:11:25.375Z,52.00
2022-08-07T16:14:03.124Z,52.00
2022-08-07T16:17:02.849Z,52.00
2022-08-07T16:20:33.155Z,52.60
2022-08-07T16:23:05.365Z,52.60
2022-08-07T16:25:54.299Z,52.00
2022-08-07T16:30:07.091Z,51.80
2022-08-07T16:32:01.541Z,51.40
2022-08-07T16:34:37.595Z,51.20
2022-08-07T16:38:02.763Z,51.00
2022-08-07T16:40:51.196Z,51.00
2022-08-07T16:44:40.534Z,51.00
2022-08-07T16:47:51.394Z,51.60
2022-08-07T16:51:20.975Z,51.00
2022-08-07T16:54:02.837Z,52.00
2022-08-07T16:56:50.214Z,52.40
2022-08-07T16:59:46.722Z,51.80
2022-08-07T17:02:52.249Z,51.00
2022-08-07T17:06:28.357Z,51.00
2022-08-07T17:09:09.485Z,51.00
2022-08-07T17:12:05.053Z,51.00
2022-08-07T17:14:47.230Z,51.20
2022-08-07T17:17:47.363Z,51.80
2022-08-07T17:20:32.810Z,51.00
2022-08-07T17:23:36.531Z,51.00
2022-08-07T17:26:05.981Z,51.00
2022-08-07T17:29:07.874Z,51.00
2022-08-07T17:31:44.239Z,52.00
2022-08-07T17:34:57.106Z,53.80
2022-08-07T17:38:05.974Z,52.00
2022-08-07T17:42:00.909Z,52.00
2022-08-07T17:44:41.385Z,52.00
2022-08-07T17:48:12.668Z,52.20
2022-08-07T17:51:01.698Z,51.00
2022-08-07T17:54:02.434Z,51.00
2022-08-07T17:56:52.495Z,51.00
2022-08-07T17:59:35.893Z,51.80
2022-08-07T18:02:31.425Z,51.00
2022-08-07T18:05:24.658Z,51.00
2022-08-07T18:08:25.689Z,51.60
2022-08-07T18:12:08.389Z,50.60
2022-08-07T18:14:23.934Z,51.20
2022-08-07T18:17:01.439Z,51.00
2022-08-07T18:21:02.499Z,51.00
2022-08-07T18:23:43.481Z,49.80
2022-08-07T18:26:26.366Z,51.00
2022-08-07T18:30:04.685Z,51.00
2022-08-07T18:32:13.248Z,49.00
2022-08-07T18:35:15.832Z,50.20
2022-08-07T18:38:55.880Z,49.80
2022-08-07T18:41:20.574Z,49.00
2022-08-07T18:44:27.439Z,48.80
2022-08-07T18:47:06.196Z,49.00
2022-08-07T18:50:39.119Z,49.00
2022-08-07T18:53:17.471Z,49.00
2022-08-07T18:56:31.561Z,48.20
2022-08-07T18:59:46.988Z,49.00
2022-08-07T19:02:42.702Z,48.80
2022-08-07T19:05:16.235Z,48.40
2022-08-07T19:08:13.967Z,49.00
2022-08-07T19:10:51.697Z,49.00
2022-08-07T19:13:51.704Z,48.00
2022-08-07T19:17:01.003Z,48.00
2022-08-07T19:19:58.586Z,48.80
2022-08-07T19:22:48.248Z,48.20
2022-08-07T19:26:24.368Z,49.00
2022-08-07T19:28:58.312Z,48.60
2022-08-07T19:31:59.769Z,48.20
2022-08-07T19:34:34.145Z,48.00
2022-08-07T19:37:10.194Z,48.40
2022-08-07T19:39:57.724Z,48.60
2022-08-07T19:42:40.259Z,51.20
2022-08-07T19:46:05.909Z,48.20
2022-08-07T19:48:42.207Z,48.00
2022-08-07T19:51:20.480Z,46.00
2022-08-07T19:54:32.447Z,48.00
2022-08-07T19:57:51.930Z,47.60
2022-08-07T19:59:46.465Z,48.00
2022-08-07T20:02:33.569Z,48.60
2022-08-07T20:05:10.129Z,48.00
2022-08-07T20:07:48.083Z,47.20
2022-08-07T20:10:52.377Z,47.20
2022-08-07T20:13:33.799Z,47.20
2022-08-07T20:16:03.962Z,46.40
2022-08-07T20:18:35.332Z,46.40
2022-08-07T20:21:14.469Z,46.00
2022-08-07T20:23:57.973Z,46.00
2022-08-07T20:26:38.626Z,46.00
2022-08-07T20:29:48.430Z,46.00
2022-08-07T20:32:40.319Z,46.80
2022-08-07T20:35:16.285Z,46.00
2022-08-07T20:37:59.665Z,46.00
2022-08-07T20:40:33.852Z,46.00
2022-08-07T20:43:14.462Z,46.00
2022-08-07T20:46:25.958Z,46.40
2022-08-07T20:49:55.186Z,46.00
2022-08-07T20:51:35.761Z,48.60
2022-08-07T20:54:29.946Z,46.00
2022-08-07T20:57:11.057Z,46.40
2022-08-07T21:00:06.501Z,46.00
2022-08-07T21:02:59.134Z,46.00
2022-08-07T21:05:59.170Z,46.00
2022-08-07T21:09:07.564Z,46.00
2022-08-07T21:11:53.310Z,45.60
2022-08-07T21:14:48.374Z,46.00
2022-08-07T21:18:02.841Z,46.00
2022-08-07T21:20:30.194Z,46.00
2022-08-07T21:23:08.786Z,46.00
2022-08-07T21:25:45.026Z,46.00
2022-08-07T21:28:54.271Z,45.40
2022-08-07T21:32:42.363Z,45.60
2022-08-07T21:35:02.260Z,45.80
2022-08-07T21:37:57.758Z,45.00
2022-08-07T21:40:51.182Z,45.80
2022-08-07T21:43:25.407Z,45.40
2022-08-07T21:46:32.411Z,46.00
2022-08-07T21:50:02.114Z,45.00
2022-08-07T21:52:54.395Z,45.00
2022-08-07T21:55:32.511Z,46.00
2022-08-07T21:58:32.301Z,45.20
2022-08-07T22:01:14.074Z,45.00
2022-08-07T22:04:10.408Z,46.00
2022-08-07T22:07:07.752Z,45.00
2022-08-07T22:09:53.863Z,45.00
2022-08-07T22:12:57.379Z,45.00
2022-08-07T22:16:43.304Z,45.20
2022-08-07T22:18:49.172Z,45.20
2022-08-07T22:21:21.258Z,45.00
2022-08-07T22:23:57.731Z,45.00
2022-08-07T22:26:57.313Z,45.00
2022-08-07T22:29:52.862Z,45.20
2022-08-07T22:32:50.710Z,45.00
2022-08-07T22:35:18.265Z,45.00
2022-08-07T22:38:03.555Z,45.00
2022-08-07T22:41:03.891Z,45.20
2022-08-07T22:44:13.885Z,45.80
2022-08-07T22:47:09.427Z,45.00
2022-08-07T22:49:54.125Z,45.00
2022-08-07T22:52:37.570Z,45.00
2022-08-07T22:55:22.554Z,44.60
2022-08-07T22:57:51.104Z,43.00
2022-08-07T23:00:28.378Z,45.20
2022-08-07T23:03:58.418Z,43.40
2022-08-07T23:06:29.740Z,44.20
2022-08-07T23:10:04.562Z,45.40
2022-08-07T23:12:57.187Z,43.00
2022-08-07T23:16:06.912Z,43.00
2022-08-07T23:18:33.757Z,43.00
2022-08-07T23:21:16.180Z,45.00
2022-08-07T23:24:04.559Z,45.00
2022-08-07T23:26:50.575Z,45.00
2022-08-07T23:30:39.591Z,44.20
2022-08-07T23:34:21.275Z,43.00
2022-08-07T23:36:04.491Z,43.00
2022-08-07T23:38:55.062Z,44.60
2022-08-07T23:42:01.398Z,43.00
2022-08-07T23:44:58.170Z,45.40
2022-08-07T23:47:47.923Z,45.00
2022-08-07T23:50:33.956Z,45.00
2022-08-07T23:53:51.091Z,45.00
2022-08-07T23:56:37.970Z,45.20
